Time;durP1;ratioP1;P1;durP2;ratioP2;P2;SDS_P1;SDS_P2;PMS_P1;PMS_P2;Temp;Humidity;BMP_temperature;BMP_pressure;BME280_temperature;BME280_humidity;BME280_pressure;Samples;Min_cycle;Max_cycle;Signal;HPM_P1;HPM_P2
2021/11/03 00:01:02;;;;;;;58.50;2.83;;;5.00;1.00;;;;;;5133302;27;20313;-65
2021/11/03 00:03:29;;;;;;;58.15;2.75;;;5.00;1.00;;;;;;5133300;27;20583;-64
2021/11/03 00:05:56;;;;;;;58.38;2.60;;;5.10;1.00;;;;;;5132664;27;20206;-64
2021/11/03 00:08:26;;;;;;;58.33;2.60;;;5.10;1.00;;;;;;5133129;27;20205;-65
2021/11/03 00:10:54;;;;;;;58.47;2.78;;;5.10;1.00;;;;;;5132940;27;20306;-64
2021/11/03 00:13:25;;;;;;;58.53;2.97;;;5.10;1.00;;;;;;5133443;27;20199;-65
2021/11/03 00:15:53;;;;;;;58.30;2.70;;;5.10;1.00;;;;;;5133008;27;20625;-65
2021/11/03 00:18:20;;;;;;;58.35;2.70;;;5.10;1.00;;;;;;5133185;27;20257;-65
2021/11/03 00:20:48;;;;;;;58.15;2.80;;;5.10;1.00;;;;;;5132874;27;20229;-65
2021/11/03 00:23:15;;;;;;;58.15;2.80;;;5.20;1.00;;;;;;5133131;27;20666;-65
2021/11/03 00:25:45;;;;;;;58.20;2.70;;;5.20;1.00;;;;;;5132470;27;20579;-65
2021/11/03 00:28:13;;;;;;;58.15;2.80;;;5.20;1.00;;;;;;5133012;27;20206;-65
2021/11/03 00:30:41;;;;;;;58.40;2.80;;;5.20;1.00;;;;;;5132673;27;20655;-65
2021/11/03 00:33:08;;;;;;;59.38;3.67;;;5.30;1.00;;;;;;5133098;27;20256;-65
2021/11/03 00:35:35;;;;;;;58.17;2.80;;;5.30;1.10;;;;;;5132397;27;20287;-65
2021/11/03 00:38:02;;;;;;;58.15;2.90;;;5.40;2.40;;;;;;5132609;27;20610;-65
2021/11/03 00:40:29;;;;;;;59.70;4.95;;;5.40;3.80;;;;;;5132782;27;20258;-65
2021/11/03 00:42:56;;;;;;;58.30;2.90;;;5.50;5.00;;;;;;5132851;27;20238;-65
2021/11/03 00:45:23;;;;;;;58.28;2.80;;;5.50;6.30;;;;;;5132624;27;20291;-65
2021/11/03 00:47:51;;;;;;;58.33;2.80;;;5.60;6.60;;;;;;5132634;27;20203;-65
2021/11/03 00:50:20;;;;;;;58.38;3.10;;;5.60;7.50;;;;;;5132437;27;20219;-65
2021/11/03 00:52:47;;;;;;;58.40;2.88;;;5.70;8.20;;;;;;5137081;27;20594;-65
2021/11/03 00:55:14;;;;;;;58.13;2.60;;;5.70;8.70;;;;;;5136988;27;20207;-65
2021/11/03 00:57:41;;;;;;;58.30;3.20;;;5.80;9.20;;;;;;5136557;27;20199;-65
2021/11/03 01:00:10;;;;;;;58.40;2.90;;;5.80;9.70;;;;;;5136608;27;20762;-65
2021/11/03 01:02:37;;;;;;;58.33;2.80;;;5.80;10.10;;;;;;5136584;27;20290;-65
2021/11/03 01:05:07;;;;;;;58.20;2.80;;;5.80;10.90;;;;;;5136469;27;20206;-65
2021/11/03 01:07:34;;;;;;;58.20;2.72;;;5.80;10.30;;;;;;5136297;27;20202;-65
2021/11/03 01:10:01;;;;;;;58.30;2.80;;;5.80;10.50;;;;;;5136513;27;20219;-65
2021/11/03 01:12:27;;;;;;;58.30;2.88;;;5.90;11.00;;;;;;5136559;27;20294;-65
2021/11/03 01:14:54;;;;;;;58.38;2.80;;;5.90;11.20;;;;;;5136432;27;20209;-65
2021/11/03 01:17:21;;;;;;;58.50;3.10;;;5.90;10.80;;;;;;5136197;27;20207;-65
2021/11/03 01:19:48;;;;;;;58.38;2.60;;;5.90;11.50;;;;;;5136363;27;20247;-65
2021/11/03 01:22:17;;;;;;;58.28;2.70;;;6.00;11.40;;;;;;5136519;27;20301;-65
2021/11/03 01:24:43;;;;;;;58.38;2.83;;;6.00;12.40;;;;;;5136329;27;20588;-65
2021/11/03 01:27:10;;;;;;;58.28;2.90;;;6.00;11.40;;;;;;5136049;27;20588;-65
2021/11/03 01:29:37;;;;;;;58.40;2.85;;;6.00;10.90;;;;;;5136178;27;20285;-65
2021/11/03 01:32:05;;;;;;;58.10;2.75;;;6.00;10.20;;;;;;5136023;27;20705;-65
2021/11/03 01:34:32;;;;;;;58.17;2.60;;;6.00;9.30;;;;;;5135992;27;20682;-65
2021/11/03 01:36:58;;;;;;;58.50;2.70;;;6.00;8.40;;;;;;5135850;27;20199;-65
2021/11/03 01:39:26;;;;;;;58.20;2.47;;;6.10;8.40;;;;;;5135945;27;20297;-65
2021/11/03 01:41:54;;;;;;;58.25;2.80;;;6.10;7.70;;;;;;5135967;27;20206;-65
2021/11/03 01:44:21;;;;;;;58.35;2.70;;;6.10;7.00;;;;;;5135901;27;20228;-65
2021/11/03 01:46:52;;;;;;;58.28;2.80;;;6.10;5.90;;;;;;5135407;27;20203;-65
2021/11/03 01:49:22;;;;;;;58.28;2.70;;;6.10;5.30;;;;;;5135928;27;20204;-66
2021/11/03 01:51:54;;;;;;;58.08;2.78;;;6.10;3.30;;;;;;5135873;27;20207;-65
2021/11/03 01:54:27;;;;;;;58.28;2.90;;;6.10;3.30;;;;;;5135732;27;20294;-66
2021/11/03 01:56:56;;;;;;;58.17;2.90;;;6.20;2.90;;;;;;5135403;27;20203;-65
2021/11/03 01:59:26;;;;;;;58.15;2.80;;;6.20;1.40;;;;;;5135323;27;20298;-66
2021/11/03 02:01:53;;;;;;;58.08;2.63;;;6.20;1.00;;;;;;5135840;27;20199;-66
2021/11/03 02:04:20;;;;;;;58.40;2.90;;;6.20;1.00;;;;;;5135099;27;20290;-66
2021/11/03 02:06:48;;;;;;;58.40;2.80;;;6.10;1.00;;;;;;5135235;27;20238;-66
2021/11/03 02:09:15;;;;;;;58.08;2.80;;;6.20;1.00;;;;;;5135527;27;20217;-66
2021/11/03 02:11:42;;;;;;;58.15;2.70;;;6.20;1.00;;;;;;5135179;27;20310;-66
2021/11/03 02:14:11;;;;;;;58.38;3.08;;;6.20;1.00;;;;;;5133696;27;20209;-66
2021/11/03 02:16:43;;;;;;;58.15;2.90;;;6.20;1.80;;;;;;5135007;27;20202;-66
2021/11/03 02:19:14;;;;;;;58.25;2.60;;;6.20;3.30;;;;;;5135285;27;20232;-66
2021/11/03 02:21:51;;;;;;;58.08;2.80;;;6.20;3.50;;;;;;5134916;27;20317;-66
2021/11/03 02:24:26;;;;;;;58.38;2.88;;;6.20;3.40;;;;;;5135339;27;20617;-66
2021/11/03 02:26:57;;;;;;;58.38;2.80;;;6.20;3.30;;;;;;5134765;27;20202;-66
2021/11/03 02:29:25;;;;;;;58.30;2.85;;;6.20;3.70;;;;;;5135038;27;20363;-65
2021/11/03 02:31:55;;;;;;;58.42;2.80;;;6.20;4.50;;;;;;5135044;27;20200;-66
2021/11/03 02:34:26;;;;;;;58.25;2.90;;;6.20;5.80;;;;;;5134755;27;20337;-66
2021/11/03 02:36:56;;;;;;;58.30;2.70;;;6.20;6.90;;;;;;5134760;27;20203;-66
2021/11/03 02:39:30;;;;;;;58.30;2.88;;;6.30;7.20;;;;;;5134849;27;20202;-65
2021/11/03 02:41:59;;;;;;;58.50;2.90;;;6.20;8.10;;;;;;5134822;27;20246;-65
2021/11/03 02:44:29;;;;;;;58.28;2.78;;;6.20;59.90;;;;;;5134679;27;20293;-65
2021/11/03 02:46:56;;;;;;;58.38;2.80;;;6.30;68.10;;;;;;5134798;27;20585;-65
2021/11/03 02:49:22;;;;;;;58.30;2.90;;;6.20;62.00;;;;;;5134743;27;20305;-66
2021/11/03 02:51:50;;;;;;;58.25;2.90;;;6.20;48.50;;;;;;5134717;27;20552;-65
2021/11/03 02:54:21;;;;;;;58.47;2.80;;;6.20;14.80;;;;;;5134548;27;20206;-65
2021/11/03 02:56:49;;;;;;;58.28;2.78;;;6.20;13.80;;;;;;5134243;27;20213;-65
2021/11/03 02:59:19;;;;;;;58.28;2.80;;;6.20;11.50;;;;;;5134351;27;20205;-65
2021/11/03 03:01:49;;;;;;;59.83;4.85;;;6.20;11.90;;;;;;5134242;27;20234;-65
2021/11/03 03:04:19;;;;;;;58.30;2.78;;;6.10;12.20;;;;;;5134430;27;20211;-65
2021/11/03 03:06:46;;;;;;;58.08;2.70;;;6.10;12.90;;;;;;5134127;27;20289;-65
2021/11/03 03:09:16;;;;;;;58.17;2.70;;;6.10;13.80;;;;;;5134334;27;20199;-65
2021/11/03 03:11:47;;;;;;;58.25;2.90;;;6.10;16.10;;;;;;5134030;27;20306;-65
2021/11/03 03:14:15;;;;;;;58.28;2.70;;;6.10;17.10;;;;;;5133044;27;20261;-65
2021/11/03 03:16:43;;;;;;;58.08;2.70;;;6.20;19.00;;;;;;5133819;27;20601;-65
2021/11/03 03:19:11;;;;;;;58.30;2.70;;;6.20;21.00;;;;;;5134107;27;20213;-65
2021/11/03 03:21:38;;;;;;;58.25;2.70;;;6.20;22.10;;;;;;5133847;27;20832;-65
2021/11/03 03:24:06;;;;;;;58.20;2.80;;;6.30;29.50;;;;;;5133774;27;20236;-64
2021/11/03 03:26:33;;;;;;;58.05;2.72;;;6.30;23.50;;;;;;5133768;27;20578;-66
2021/11/03 03:29:01;;;;;;;58.17;2.65;;;6.30;24.20;;;;;;5134015;27;20301;-65
2021/11/03 03:31:29;;;;;;;58.20;2.85;;;6.30;24.20;;;;;;5133796;27;20303;-65
2021/11/03 03:33:59;;;;;;;58.28;2.70;;;6.30;24.80;;;;;;5133650;27;20303;-65
2021/11/03 03:36:27;;;;;;;58.08;2.70;;;6.30;25.10;;;;;;5133391;27;20205;-65
2021/11/03 03:38:55;;;;;;;58.17;2.45;;;6.20;25.30;;;;;;5133560;27;20211;-65
2021/11/03 03:41:25;;;;;;;58.08;2.80;;;6.20;25.30;;;;;;5133676;27;20233;-65
2021/11/03 03:43:52;;;;;;;58.28;2.80;;;6.20;25.30;;;;;;5133540;27;20701;-65
2021/11/03 03:46:20;;;;;;;58.25;2.80;;;6.20;25.30;;;;;;5133161;27;20228;-65
2021/11/03 03:48:47;;;;;;;58.33;2.67;;;6.20;26.30;;;;;;5133476;27;20234;-66
2021/11/03 03:51:16;;;;;;;58.08;2.78;;;6.20;26.80;;;;;;5133308;27;20308;-65
2021/11/03 03:53:43;;;;;;;58.13;2.80;;;6.20;27.60;;;;;;5133349;27;20235;-65
2021/11/03 03:56:11;;;;;;;58.05;2.50;;;6.20;27.70;;;;;;5133173;27;20203;-65
2021/11/03 03:58:39;;;;;;;58.28;2.65;;;6.20;27.80;;;;;;5133206;27;20293;-65
2021/11/03 04:01:06;;;;;;;58.38;2.80;;;6.20;28.00;;;;;;5133132;27;20231;-65
2021/11/03 04:03:33;;;;;;;58.28;2.78;;;6.20;28.90;;;;;;5133186;27;20298;-65
2021/11/03 04:06:00;;;;;;;58.53;3.05;;;6.20;29.50;;;;;;5132771;27;20244;-65
2021/11/03 04:08:29;;;;;;;58.30;2.72;;;6.20;29.70;;;;;;5133184;27;20597;-65
2021/11/03 04:10:57;;;;;;;58.20;2.60;;;6.20;30.10;;;;;;5133159;27;20566;-65
2021/11/03 04:13:24;;;;;;;58.28;2.70;;;6.20;31.40;;;;;;5133189;27;20681;-65
2021/11/03 04:15:51;;;;;;;58.38;2.90;;;6.20;33.30;;;;;;5132693;27;20301;-65
2021/11/03 04:18:18;;;;;;;58.28;2.80;;;6.20;34.70;;;;;;5132882;27;20563;-65
2021/11/03 04:20:45;;;;;;;58.38;2.97;;;6.30;35.10;;;;;;5133024;27;20254;-65
2021/11/03 04:23:12;;;;;;;58.17;3.00;;;6.30;35.10;;;;;;5133112;27;20300;-65
2021/11/03 04:25:41;;;;;;;58.17;2.80;;;6.30;35.30;;;;;;5132183;27;20698;-65
2021/11/03 04:28:08;;;;;;;58.00;2.72;;;6.30;36.40;;;;;;5132781;27;20298;-65
2021/11/03 04:30:36;;;;;;;58.40;2.67;;;6.30;36.60;;;;;;5132721;27;20314;-65
2021/11/03 04:33:04;;;;;;;58.08;2.78;;;6.20;36.70;;;;;;5132960;27;20232;-65
2021/11/03 04:35:31;;;;;;;58.30;2.90;;;6.20;36.50;;;;;;5132367;27;20246;-65
2021/11/03 04:38:00;;;;;;;58.40;2.88;;;6.20;36.90;;;;;;5132922;27;20628;-65
2021/11/03 04:40:28;;;;;;;58.28;2.70;;;6.20;37.20;;;;;;5132522;27;20740;-65
2021/11/03 04:42:57;;;;;;;58.38;2.90;;;6.20;37.10;;;;;;5132679;27;20290;-66
2021/11/03 04:45:26;;;;;;;58.05;2.78;;;6.20;37.60;;;;;;5132276;27;20211;-65
2021/11/03 04:47:53;;;;;;;58.42;2.75;;;6.20;38.70;;;;;;5132653;27;20296;-66
2021/11/03 04:50:22;;;;;;;58.38;2.80;;;6.20;39.60;;;;;;5132667;27;20223;-65
2021/11/03 04:52:49;;;;;;;58.28;2.75;;;6.30;40.10;;;;;;5132481;27;20726;-65
2021/11/03 04:55:17;;;;;;;58.42;2.80;;;6.30;40.70;;;;;;5132484;27;20322;-65
2021/11/03 04:57:44;;;;;;;58.20;2.67;;;6.30;41.00;;;;;;5132347;27;20699;-65
2021/11/03 05:00:18;;;;;;;58.05;2.72;;;6.30;41.60;;;;;;5132357;27;20288;-65
2021/11/03 05:02:45;;;;;;;58.10;2.88;;;6.30;42.30;;;;;;5132475;27;20238;-65
2021/11/03 05:05:12;;;;;;;61.80;3.97;;;6.30;42.70;;;;;;5132356;27;20289;-66
2021/11/03 05:07:40;;;;;;;58.17;2.80;;;6.30;42.60;;;;;;5132341;27;20230;-65
2021/11/03 05:10:07;;;;;;;58.15;2.90;;;6.20;42.80;;;;;;5132264;27;20227;-66
2021/11/03 05:12:34;;;;;;;58.17;2.80;;;6.20;42.90;;;;;;5132275;27;20285;-65
2021/11/03 05:15:01;;;;;;;57.97;2.70;;;6.20;42.70;;;;;;5132442;27;20199;-66
2021/11/03 05:17:29;;;;;;;58.38;2.78;;;6.20;43.30;;;;;;5132274;27;20702;-65
2021/11/03 05:19:56;;;;;;;58.30;2.72;;;6.20;43.50;;;;;;5132377;27;20679;-66
2021/11/03 05:22:29;;;;;;;58.25;2.60;;;6.20;43.90;;;;;;5132203;27;20798;-65
2021/11/03 05:24:56;;;;;;;58.08;2.72;;;6.20;44.20;;;;;;5132206;27;20246;-65
2021/11/03 05:27:24;;;;;;;58.28;2.75;;;6.20;45.60;;;;;;5132277;27;20579;-65
2021/11/03 05:29:50;;;;;;;58.17;2.70;;;6.30;45.90;;;;;;5132356;27;20235;-66
2021/11/03 05:32:17;;;;;;;58.28;2.90;;;6.30;46.50;;;;;;5132419;27;20289;-66
2021/11/03 05:34:46;;;;;;;58.17;2.67;;;6.30;47.50;;;;;;5132364;27;20624;-65
2021/11/03 05:37:15;;;;;;;58.17;2.80;;;6.30;48.00;;;;;;5131946;27;20297;-65
2021/11/03 05:39:43;;;;;;;58.20;2.80;;;6.30;48.80;;;;;;5135836;27;20711;-65
2021/11/03 05:42:11;;;;;;;58.30;2.88;;;6.40;49.30;;;;;;5135848;27;20314;-66
2021/11/03 05:44:38;;;;;;;58.30;2.70;;;6.40;49.90;;;;;;5135895;27;20209;-65
2021/11/03 05:47:07;;;;;;;60.25;3.20;;;6.40;50.10;;;;;;5135666;27;20298;-66
2021/11/03 05:49:35;;;;;;;58.08;2.90;;;6.40;50.40;;;;;;5135896;27;20286;-66
2021/11/03 05:52:06;;;;;;;58.47;3.53;;;6.40;50.30;;;;;;5135613;27;20209;-66
2021/11/03 05:54:33;;;;;;;58.80;3.10;;;6.40;50.70;;;;;;5135789;27;20295;-66
2021/11/03 05:57:02;;;;;;;57.95;2.70;;;6.40;50.70;;;;;;5135347;27;20644;-66
2021/11/03 05:59:29;;;;;;;57.97;2.63;;;6.40;50.70;;;;;;5135546;27;20615;-65
2021/11/03 06:01:56;;;;;;;58.08;2.90;;;6.40;50.10;;;;;;5135617;27;20226;-66
2021/11/03 06:04:23;;;;;;;58.08;2.63;;;6.40;49.30;;;;;;5135535;27;20204;-65
2021/11/03 06:06:50;;;;;;;58.30;2.72;;;6.40;49.20;;;;;;5135059;27;20206;-65
2021/11/03 06:09:19;;;;;;;58.28;3.20;;;6.40;49.40;;;;;;5135585;27;20289;-66
2021/11/03 06:11:50;;;;;;;58.17;2.55;;;6.40;49.40;;;;;;5135552;27;20568;-66
2021/11/03 06:14:17;;;;;;;60.55;4.43;;;6.40;49.40;;;;;;5135387;27;20206;-66
2021/11/03 06:16:44;;;;;;;58.13;2.70;;;6.40;49.10;;;;;;5135090;27;20203;-66
2021/11/03 06:19:11;;;;;;;58.25;2.88;;;6.40;49.10;;;;;;5135124;27;20203;-66
2021/11/03 06:21:38;;;;;;;58.30;2.60;;;6.50;49.00;;;;;;5135191;27;20237;-66
2021/11/03 06:24:05;;;;;;;58.17;2.63;;;6.50;48.90;;;;;;5135424;27;20294;-65
2021/11/03 06:26:33;;;;;;;58.28;2.70;;;6.50;48.40;;;;;;5135986;27;20245;-66
2021/11/03 06:29:00;;;;;;;58.17;2.90;;;6.50;47.90;;;;;;5140848;27;20289;-66
2021/11/03 06:31:27;;;;;;;58.00;2.70;;;6.50;46.90;;;;;;5141368;27;20287;-66
2021/11/03 06:33:54;;;;;;;58.28;2.80;;;6.50;46.80;;;;;;5140752;27;20294;-66
2021/11/03 06:36:21;;;;;;;58.20;2.78;;;6.50;46.10;;;;;;5140685;27;20229;-66
2021/11/03 06:38:48;;;;;;;58.40;2.80;;;6.50;46.10;;;;;;5141401;27;20249;-66
2021/11/03 06:41:17;;;;;;;57.97;2.65;;;6.50;46.20;;;;;;5141275;27;20337;-66
2021/11/03 06:43:46;;;;;;;58.30;2.78;;;6.50;46.30;;;;;;5140747;27;20205;-66
2021/11/03 06:46:13;;;;;;;58.15;2.72;;;6.60;46.20;;;;;;5140559;27;20206;-66
2021/11/03 06:48:40;;;;;;;58.05;2.58;;;6.60;46.30;;;;;;5141151;27;20199;-66
2021/11/03 06:51:08;;;;;;;58.15;2.75;;;6.70;46.70;;;;;;5141845;27;20722;-65
2021/11/03 06:53:35;;;;;;;58.05;2.72;;;6.70;47.70;;;;;;5134659;27;20204;-67
2021/11/03 06:56:03;;;;;;;58.07;2.70;;;6.70;48.30;;;;;;5134199;27;20252;-66
2021/11/03 06:58:30;;;;;;;58.28;2.65;;;6.80;48.60;;;;;;5134356;27;20523;-66
2021/11/03 07:00:59;;;;;;;58.15;2.63;;;6.80;49.40;;;;;;5134569;27;20311;-66
2021/11/03 07:03:29;;;;;;;58.10;2.60;;;6.90;50.80;;;;;;5134468;27;20298;-66
2021/11/03 07:05:57;;;;;;;58.20;2.60;;;7.00;51.90;;;;;;5133725;27;20247;-66
2021/11/03 07:08:26;;;;;;;58.28;2.83;;;7.00;53.20;;;;;;5134391;27;20452;-66
2021/11/03 07:10:56;;;;;;;57.97;2.60;;;7.10;53.00;;;;;;5134222;27;20309;-66
2021/11/03 07:13:25;;;;;;;57.97;2.45;;;7.10;53.20;;;;;;5134065;27;20230;-66
2021/11/03 07:15:53;;;;;;;58.17;2.80;;;7.20;53.20;;;;;;5133912;27;20214;-66
2021/11/03 07:18:23;;;;;;;58.28;2.72;;;7.20;52.90;;;;;;5134040;27;20204;-66
2021/11/03 07:20:51;;;;;;;58.17;2.88;;;7.20;52.60;;;;;;5133915;27;20714;-66
2021/11/03 07:23:21;;;;;;;58.17;2.85;;;7.20;46.90;;;;;;5133947;27;20676;-66
2021/11/03 07:25:48;;;;;;;58.35;2.63;;;7.20;40.70;;;;;;5133466;27;20234;-66
2021/11/03 07:28:15;;;;;;;57.97;2.80;;;7.30;37.50;;;;;;5133990;27;20293;-66
2021/11/03 07:30:43;;;;;;;58.08;2.78;;;7.40;34.80;;;;;;5133821;27;20462;-66
2021/11/03 07:33:12;;;;;;;58.15;2.90;;;7.40;29.20;;;;;;5133857;27;20639;-66
2021/11/03 07:35:41;;;;;;;58.28;2.70;;;7.40;28.80;;;;;;5133269;27;20312;-66
2021/11/03 07:38:08;;;;;;;58.20;2.80;;;7.50;29.50;;;;;;5133647;27;20207;-66
2021/11/03 07:40:39;;;;;;;57.97;2.80;;;7.60;30.00;;;;;;5133452;27;20911;-66
2021/11/03 07:43:08;;;;;;;58.17;2.80;;;7.60;28.90;;;;;;5133516;27;20484;-66
2021/11/03 07:45:36;;;;;;;58.10;2.57;;;7.60;26.60;;;;;;5133114;27;20523;-66
2021/11/03 07:48:04;;;;;;;58.30;2.70;;;7.70;26.40;;;;;;5133565;27;20538;-66
2021/11/03 07:50:36;;;;;;;57.97;2.55;;;7.70;24.20;;;;;;5133635;27;20561;-66
2021/11/03 07:53:05;;;;;;;60.35;3.38;;;7.70;17.00;;;;;;5133424;27;20616;-66
2021/11/03 07:55:32;;;;;;;58.17;2.67;;;7.70;11.90;;;;;;5133272;27;20242;-66
2021/11/03 07:57:59;;;;;;;57.77;2.70;;;7.80;13.00;;;;;;5133477;27;20444;-66
2021/11/03 08:00:29;;;;;;;58.17;2.73;;;7.90;14.50;;;;;;5132684;27;20473;-66
2021/11/03 08:02:55;;;;;;;58.03;3.00;;;7.90;16.10;;;;;;5133257;27;20563;-66
2021/11/03 08:05:27;;;;;;;58.13;2.90;;;8.10;17.20;;;;;;5132925;27;20465;-66
2021/11/03 08:07:54;;;;;;;57.97;2.90;;;8.20;16.90;;;;;;5133276;27;20451;-66
2021/11/03 08:10:24;;;;;;;58.20;3.10;;;8.20;9.20;;;;;;5132690;27;20549;-66
2021/11/03 08:12:52;;;;;;;58.07;2.97;;;8.20;7.10;;;;;;5133147;27;20450;-66
2021/11/03 08:15:19;;;;;;;57.97;2.90;;;8.30;9.00;;;;;;5132970;27;20449;-66
2021/11/03 08:17:47;;;;;;;58.10;2.90;;;8.40;9.90;;;;;;5132810;27;20452;-66
2021/11/03 08:20:19;;;;;;;58.03;2.80;;;8.50;10.90;;;;;;5133174;27;20480;-66
2021/11/03 08:22:46;;;;;;;58.13;2.80;;;8.50;12.20;;;;;;5132774;27;20486;-66
2021/11/03 08:25:14;;;;;;;58.10;2.90;;;8.60;12.80;;;;;;5132909;27;20472;-66
2021/11/03 08:27:42;;;;;;;58.27;2.80;;;8.70;12.20;;;;;;5132716;27;20529;-66
2021/11/03 08:30:12;;;;;;;58.07;2.80;;;8.80;1.00;;;;;;5132673;27;20466;-66
2021/11/03 08:32:46;;;;;;;58.07;2.80;;;8.80;1.00;;;;;;5132685;27;20442;-65
2021/11/03 08:35:15;;;;;;;58.17;2.80;;;8.90;1.00;;;;;;5132629;27;21029;-66
2021/11/03 08:37:43;;;;;;;58.07;2.80;;;9.00;1.00;;;;;;5132545;27;20969;-65
2021/11/03 08:40:16;;;;;;;58.20;3.20;;;9.00;1.00;;;;;;5132583;27;20990;-66
2021/11/03 08:42:44;;;;;;;58.27;2.63;;;9.10;1.00;;;;;;5132584;27;20518;-65
2021/11/03 08:45:13;;;;;;;58.17;2.77;;;9.10;1.00;;;;;;5132532;27;20823;-66
2021/11/03 08:47:41;;;;;;;58.37;2.97;;;9.10;1.00;;;;;;5132606;27;20453;-66
2021/11/03 08:50:12;;;;;;;58.03;2.77;;;9.10;1.00;;;;;;5132507;27;20470;-66
2021/11/03 08:52:39;;;;;;;58.13;2.83;;;9.10;1.00;;;;;;5132729;27;20874;-65
2021/11/03 08:55:07;;;;;;;57.97;2.70;;;9.10;1.00;;;;;;5132472;27;20443;-65
2021/11/03 08:57:35;;;;;;;58.07;3.00;;;9.20;1.00;;;;;;5132298;27;20475;-65
2021/11/03 09:00:07;;;;;;;58.07;2.87;;;9.20;1.00;;;;;;5132444;27;20511;-65
2021/11/03 09:02:34;;;;;;;57.97;2.70;;;9.10;1.00;;;;;;5132455;27;20557;-65
2021/11/03 09:05:01;;;;;;;57.97;2.97;;;9.10;1.00;;;;;;5132362;27;20453;-65
2021/11/03 09:07:29;;;;;;;58.07;2.90;;;9.10;1.00;;;;;;5132238;27;20527;-65
2021/11/03 09:09:56;;;;;;;57.97;2.80;;;9.00;1.00;;;;;;5132360;27;20465;-65
2021/11/03 09:12:23;;;;;;;58.13;2.87;;;9.00;1.00;;;;;;5134563;27;20525;-65
2021/11/03 09:14:50;;;;;;;58.37;2.90;;;9.10;1.00;;;;;;5136463;27;20454;-65
2021/11/03 09:17:18;;;;;;;58.23;2.77;;;9.10;1.00;;;;;;5136216;27;20449;-65
2021/11/03 09:19:45;;;;;;;57.87;2.70;;;9.20;1.00;;;;;;5136461;27;20555;-65
2021/11/03 09:22:11;;;;;;;58.20;2.70;;;9.30;1.00;;;;;;5136410;27;20522;-65
2021/11/03 09:24:39;;;;;;;58.03;2.70;;;9.40;1.00;;;;;;5136179;27;20530;-65
2021/11/03 09:27:13;;;;;;;58.30;2.60;;;9.60;1.00;;;;;;5136214;27;20443;-65
2021/11/03 09:29:40;;;;;;;58.07;2.70;;;9.90;1.00;;;;;;5136175;27;20987;-65
2021/11/03 09:32:11;;;;;;;58.03;2.80;;;10.10;1.00;;;;;;5136384;27;20449;-65
2021/11/03 09:34:41;;;;;;;57.97;2.67;;;10.30;1.00;;;;;;5135606;27;20679;-65
2021/11/03 09:37:10;;;;;;;57.97;2.73;;;10.50;1.00;;;;;;5135808;27;20539;-65
2021/11/03 09:39:38;;;;;;;58.07;2.70;;;10.50;1.00;;;;;;5136156;27;20448;-65
2021/11/03 09:42:05;;;;;;;58.10;2.63;;;10.60;1.00;;;;;;5136117;27;20534;-65
2021/11/03 09:44:35;;;;;;;58.17;2.70;;;10.60;1.00;;;;;;5135960;27;20444;-65
2021/11/03 09:47:17;;;;;;;57.83;2.70;;;10.60;1.00;;;;;;5135662;27;20443;-65
2021/11/03 09:49:51;;;;;;;58.10;2.90;;;10.70;1.00;;;;;;5135689;27;20506;-65
2021/11/03 09:52:24;;;;;;;58.17;2.90;;;10.70;1.00;;;;;;5135702;27;20969;-65
2021/11/03 09:54:53;;;;;;;58.07;2.70;;;10.70;1.00;;;;;;5135904;27;20452;-65
2021/11/03 09:57:27;;;;;;;58.27;2.90;;;10.80;1.00;;;;;;5135356;27;20531;-65
2021/11/03 10:00:01;;;;;;;57.97;2.53;;;10.80;1.00;;;;;;5135519;27;20464;-65
2021/11/03 10:02:39;;;;;;;57.77;2.90;;;10.80;1.00;;;;;;5135790;27;20478;-65
2021/11/03 10:05:24;;;;;;;57.83;2.60;;;10.80;1.00;;;;;;5135953;27;20449;-65
2021/11/03 10:07:55;;;;;;;57.77;2.60;;;10.80;1.00;;;;;;5135587;27;20436;-65
2021/11/03 10:10:31;;;;;;;57.97;2.63;;;10.80;1.00;;;;;;5135428;27;20464;-65
2021/11/03 10:12:58;;;;;;;57.90;2.60;;;10.80;1.00;;;;;;5135379;27;20489;-65
2021/11/03 10:15:26;;;;;;;57.77;2.53;;;10.80;1.00;;;;;;5135215;27;20445;-65
2021/11/03 10:18:16;;;;;;;57.83;2.60;;;10.70;1.00;;;;;;5135393;27;20454;-65
2021/11/03 10:20:47;;;;;;;57.77;2.67;;;10.80;1.00;;;;;;5135145;27;20519;-65
2021/11/03 10:23:22;;;;;;;58.27;2.70;;;10.70;1.00;;;;;;5134835;27;20857;-65
2021/11/03 10:25:58;;;;;;;57.87;2.63;;;10.80;1.00;;;;;;5135104;27;20497;-65
2021/11/03 10:28:33;;;;;;;58.17;2.73;;;10.80;1.00;;;;;;5135263;27;20451;-65
2021/11/03 10:31:00;;;;;;;57.97;2.60;;;10.90;1.00;;;;;;5135052;27;20550;-65
2021/11/03 10:33:34;;;;;;;57.63;2.50;;;10.90;1.00;;;;;;5134808;27;20809;-65
2021/11/03 10:36:11;;;;;;;57.87;2.70;;;10.90;1.00;;;;;;5134613;27;20440;-65
2021/11/03 10:38:44;;;;;;;57.83;2.60;;;11.00;1.00;;;;;;5134999;27;20451;-65
2021/11/03 10:41:20;;;;;;;57.87;2.60;;;11.10;1.00;;;;;;5134939;27;20460;-65
2021/11/03 10:44:00;;;;;;;57.87;2.70;;;11.20;1.00;;;;;;5134615;27;20506;-65
2021/11/03 10:46:31;;;;;;;58.13;2.60;;;11.30;1.00;;;;;;5134684;27;20472;-65
2021/11/03 10:49:20;;;;;;;57.87;2.60;;;11.30;1.00;;;;;;5134770;27;20604;-65
2021/11/03 10:51:57;;;;;;;58.00;2.50;;;11.30;1.00;;;;;;5134429;27;20459;-65
2021/11/03 10:54:36;;;;;;;57.93;2.60;;;11.40;1.00;;;;;;5134607;27;20439;-65
2021/11/03 10:57:24;;;;;;;57.83;2.50;;;11.40;1.00;;;;;;5134315;27;20452;-65
2021/11/03 10:59:55;;;;;;;57.63;2.80;;;11.50;1.00;;;;;;5134415;27;20499;-65
2021/11/03 11:02:26;;;;;;;57.57;2.50;;;11.60;1.00;;;;;;5134359;27;20528;-65
2021/11/03 11:04:55;;;;;;;57.93;2.60;;;11.60;1.00;;;;;;5134294;27;20451;-65
2021/11/03 11:07:28;;;;;;;57.83;2.40;;;11.60;1.00;;;;;;5134318;27;20448;-65
2021/11/03 11:10:02;;;;;;;58.00;2.60;;;11.60;1.00;;;;;;5134395;27;20464;-65
2021/11/03 11:12:33;;;;;;;57.93;2.57;;;11.60;1.00;;;;;;5134299;27;20472;-65
2021/11/03 11:15:03;;;;;;;57.77;2.50;;;11.50;1.00;;;;;;5134088;27;20472;-65
2021/11/03 11:17:35;;;;;;;57.87;2.50;;;11.50;1.00;;;;;;5134095;27;20476;-65
2021/11/03 11:20:11;;;;;;;57.80;2.40;;;11.40;1.00;;;;;;5134073;27;20972;-65
2021/11/03 11:22:56;;;;;;;57.63;2.40;;;11.30;1.00;;;;;;5133983;27;20471;-65
2021/11/03 11:25:30;;;;;;;58.07;2.60;;;11.40;1.00;;;;;;5133803;27;20818;-65
2021/11/03 11:28:13;;;;;;;58.00;2.30;;;11.40;1.00;;;;;;5134176;27;20448;-65
2021/11/03 11:30:46;;;;;;;57.87;2.30;;;11.40;1.00;;;;;;5133987;27;20464;-65
2021/11/03 11:33:23;;;;;;;59.27;2.80;;;11.40;1.00;;;;;;5133969;27;20818;-65
2021/11/03 11:36:00;;;;;;;57.77;2.37;;;11.30;1.00;;;;;;5132497;27;20934;-65
2021/11/03 11:38:43;;;;;;;57.70;2.40;;;11.30;1.00;;;;;;5133820;27;20955;-65
2021/11/03 11:41:17;;;;;;;57.97;2.40;;;11.40;1.00;;;;;;5133803;27;20511;-65
2021/11/03 11:43:48;;;;;;;57.67;2.50;;;11.40;1.00;;;;;;5133721;27;20829;-65
2021/11/03 11:46:20;;;;;;;58.00;2.50;;;11.40;1.00;;;;;;5133227;27;20445;-65
2021/11/03 11:48:50;;;;;;;58.07;2.90;;;11.40;1.00;;;;;;5133664;27;20444;-65
2021/11/03 11:51:24;;;;;;;57.83;2.80;;;11.40;1.00;;;;;;5133394;27;20499;-65
2021/11/03 11:54:27;;;;;;;57.97;2.60;;;11.40;1.00;;;;;;5133615;27;20454;-65
2021/11/03 11:57:22;;;;;;;57.83;2.50;;;11.40;1.00;;;;;;5133073;27;20808;-65
2021/11/03 12:00:17;;;;;;;61.60;2.70;;;11.30;1.00;;;;;;5131828;27;20824;-65
2021/11/03 12:03:15;;;;;;;57.67;2.57;;;11.40;1.00;;;;;;5133284;27;20440;-65
2021/11/03 12:05:57;;;;;;;57.73;2.80;;;11.30;1.00;;;;;;5133068;27;20527;-65
2021/11/03 12:08:28;;;;;;;58.03;2.60;;;11.30;1.00;;;;;;5133275;27;20474;-65
2021/11/03 12:11:19;;;;;;;57.77;2.70;;;11.20;1.00;;;;;;5133234;27;20469;-65
2021/11/03 12:14:23;;;;;;;57.77;2.67;;;11.20;1.00;;;;;;5133438;27;20741;-65
2021/11/03 12:17:17;;;;;;;60.97;3.00;;;11.20;1.00;;;;;;5132900;27;20440;-65
2021/11/03 12:19:57;;;;;;;57.73;2.70;;;11.20;1.00;;;;;;5132944;27;20829;-65
2021/11/03 12:22:49;;;;;;;57.83;2.70;;;11.20;1.00;;;;;;5133242;27;20467;-65
2021/11/03 12:25:39;;;;;;;58.10;2.80;;;11.10;1.00;;;;;;5124640;27;20824;-65
2021/11/03 12:28:47;;;;;;;58.03;2.70;;;11.10;1.00;;;;;;5133042;27;20484;-65
2021/11/03 12:31:24;;;;;;;58.07;2.70;;;11.10;1.00;;;;;;5133044;27;20494;-65
2021/11/03 12:34:18;;;;;;;58.00;2.50;;;11.20;1.00;;;;;;5132637;27;21023;-65
2021/11/03 12:37:06;;;;;;;57.90;2.50;;;11.30;1.00;;;;;;5132670;27;20467;-65
2021/11/03 12:39:53;;;;;;;57.73;2.70;;;11.40;1.00;;;;;;5119596;27;20488;-65
2021/11/03 12:42:31;;;;;;;57.83;2.70;;;11.60;1.00;;;;;;5132797;27;20480;-65
2021/11/03 12:45:14;;;;;;;57.97;2.60;;;11.60;1.00;;;;;;5132813;27;20567;-66
2021/11/03 12:47:51;;;;;;;57.97;2.50;;;11.70;1.00;;;;;;5132444;27;20523;-65
2021/11/03 12:50:23;;;;;;;57.87;2.50;;;11.70;1.00;;;;;;5132763;27;20472;-65
2021/11/03 12:52:53;;;;;;;57.67;2.57;;;11.70;1.00;;;;;;5132733;27;20452;-65
2021/11/03 12:55:23;;;;;;;57.77;2.50;;;11.60;1.00;;;;;;5132732;27;20536;-65
2021/11/03 12:57:52;;;;;;;57.73;2.50;;;11.60;1.00;;;;;;5132858;27;20447;-65
2021/11/03 13:00:24;;;;;;;57.63;2.53;;;11.50;1.00;;;;;;5132701;27;20472;-65
2021/11/03 13:02:58;;;;;;;57.97;2.57;;;11.50;1.00;;;;;;5132604;27;20881;-65
2021/11/03 13:05:27;;;;;;;57.97;2.60;;;11.50;1.00;;;;;;5132174;27;20444;-65
2021/11/03 13:07:54;;;;;;;57.83;2.60;;;11.40;1.00;;;;;;5132547;27;20486;-65